sensor_id;sensor_type;location;lat;lon;timestamp;P1;durP1;ratioP1;P2;durP2;ratioP2
76548;SDS011;65391;52.068;4.542;2023-12-07T00:01:52;13.3;;;5.9;;
76548;SDS011;65391;52.068;4.542;2023-12-07T00:04:17;13.3;;;5.9;;
76548;SDS011;65391;52.068;4.542;2023-12-07T00:06:42;13.3;;;5.9;;
76548;SDS011;65391;52.068;4.542;2023-12-07T00:09:07;13.3;;;5.9;;
76548;SDS011;65391;52.068;4.542;2023-12-07T00:11:32;10.8;;;5.1;;
76548;SDS011;65391;52.068;4.542;2023-12-07T00:13:57;10.8;;;5.1;;
76548;SDS011;65391;52.068;4.542;2023-12-07T00:16:22;10.8;;;5.1;;
76548;SDS011;65391;52.068;4.542;2023-12-07T00:18:47;10.8;;;5.1;;
76548;SDS011;65391;52.068;4.542;2023-12-07T00:21:12;10.7;;;5.5;;
76548;SDS011;65391;52.068;4.542;2023-12-07T00:23:37;10.7;;;5.5;;
76548;SDS011;65391;52.068;4.542;2023-12-07T00:26:03;10.7;;;5.5;;
76548;SDS011;65391;52.068;4.542;2023-12-07T00:28:27;10.7;;;5.5;;
76548;SDS011;65391;52.068;4.542;2023-12-07T00:30:52;11.3;;;5.4;;
76548;SDS011;65391;52.068;4.542;2023-12-07T00:33:17;11.3;;;5.4;;
76548;SDS011;65391;52.068;4.542;2023-12-07T00:35:42;11.3;;;5.4;;
76548;SDS011;65391;52.068;4.542;2023-12-07T00:38:07;11.3;;;5.4;;
76548;SDS011;65391;52.068;4.542;2023-12-07T00:40:32;11.3;;;5.4;;
76548;SDS011;65391;52.068;4.542;2023-12-07T00:42:57;10;;;5;;
76548;SDS011;65391;52.068;4.542;2023-12-07T00:45:22;10;;;5;;
76548;SDS011;65391;52.068;4.542;2023-12-07T00:47:47;10;;;5;;
76548;SDS011;65391;52.068;4.542;2023-12-07T00:50:12;10;;;5;;
76548;SDS011;65391;52.068;4.542;2023-12-07T00:52:37;11.6;;;5.2;;
76548;SDS011;65391;52.068;4.542;2023-12-07T00:55:02;11.6;;;5.2;;
76548;SDS011;65391;52.068;4.542;2023-12-07T00:57:27;11.6;;;5.2;;
76548;SDS011;65391;52.068;4.542;2023-12-07T00:59:52;11.6;;;5.2;;
76548;SDS011;65391;52.068;4.542;2023-12-07T01:02:17;10.1;;;5.3;;
76548;SDS011;65391;52.068;4.542;2023-12-07T01:04:42;10.1;;;5.3;;
76548;SDS011;65391;52.068;4.542;2023-12-07T01:07:07;10.1;;;5.3;;
76548;SDS011;65391;52.068;4.542;2023-12-07T01:09:33;10.1;;;5.3;;
76548;SDS011;65391;52.068;4.542;2023-12-07T01:11:57;11.3;;;5.4;;
76548;SDS011;65391;52.068;4.542;2023-12-07T01:14:22;11.3;;;5.4;;
76548;SDS011;65391;52.068;4.542;2023-12-07T01:16:47;11.3;;;5.4;;
76548;SDS011;65391;52.068;4.542;2023-12-07T01:19:12;11.3;;;5.4;;
76548;SDS011;65391;52.068;4.542;2023-12-07T01:21:37;12.9;;;5.5;;
76548;SDS011;65391;52.068;4.542;2023-12-07T01:24:02;12.9;;;5.5;;
76548;SDS011;65391;52.068;4.542;2023-12-07T01:26:27;12.9;;;5.5;;
76548;SDS011;65391;52.068;4.542;2023-12-07T01:28:52;12.9;;;5.5;;
76548;SDS011;65391;52.068;4.542;2023-12-07T01:31:17;11.8;;;5.4;;
76548;SDS011;65391;52.068;4.542;2023-12-07T01:33:42;11.8;;;5.4;;
76548;SDS011;65391;52.068;4.542;2023-12-07T01:36:07;11.8;;;5.4;;
76548;SDS011;65391;52.068;4.542;2023-12-07T01:38:32;11.8;;;5.4;;
76548;SDS011;65391;52.068;4.542;2023-12-07T01:40:57;13.7;;;6.1;;
76548;SDS011;65391;52.068;4.542;2023-12-07T01:43:22;13.7;;;6.1;;
76548;SDS011;65391;52.068;4.542;2023-12-07T01:45:47;13.7;;;6.1;;
76548;SDS011;65391;52.068;4.542;2023-12-07T01:48:12;13.7;;;6.1;;
76548;SDS011;65391;52.068;4.542;2023-12-07T01:50:37;13.7;;;6.1;;
76548;SDS011;65391;52.068;4.542;2023-12-07T01:53:02;12.4;;;5.6;;
76548;SDS011;65391;52.068;4.542;2023-12-07T01:55:27;12.4;;;5.6;;
76548;SDS011;65391;52.068;4.542;2023-12-07T01:57:52;12.4;;;5.6;;
76548;SDS011;65391;52.068;4.542;2023-12-07T02:00:17;12.4;;;5.6;;
76548;SDS011;65391;52.068;4.542;2023-12-07T02:02:43;10.6;;;5.3;;
76548;SDS011;65391;52.068;4.542;2023-12-07T02:05:07;10.6;;;5.3;;
76548;SDS011;65391;52.068;4.542;2023-12-07T02:07:32;10.6;;;5.3;;
76548;SDS011;65391;52.068;4.542;2023-12-07T02:09:57;10.6;;;5.3;;
76548;SDS011;65391;52.068;4.542;2023-12-07T02:12:22;11.8;;;5.8;;
76548;SDS011;65391;52.068;4.542;2023-12-07T02:14:47;11.8;;;5.8;;
76548;SDS011;65391;52.068;4.542;2023-12-07T02:17:14;11.8;;;5.8;;
76548;SDS011;65391;52.068;4.542;2023-12-07T02:19:47;11.8;;;5.8;;
76548;SDS011;65391;52.068;4.542;2023-12-07T02:22:03;10.1;;;4.9;;
76548;SDS011;65391;52.068;4.542;2023-12-07T02:24:27;10.1;;;4.9;;
76548;SDS011;65391;52.068;4.542;2023-12-07T02:26:52;10.1;;;4.9;;
76548;SDS011;65391;52.068;4.542;2023-12-07T02:29:17;10.1;;;4.9;;
76548;SDS011;65391;52.068;4.542;2023-12-07T02:31:42;10.6;;;5.4;;
76548;SDS011;65391;52.068;4.542;2023-12-07T02:34:07;10.6;;;5.4;;
76548;SDS011;65391;52.068;4.542;2023-12-07T02:36:32;10.6;;;5.4;;
76548;SDS011;65391;52.068;4.542;2023-12-07T02:38:58;10.6;;;5.4;;
76548;SDS011;65391;52.068;4.542;2023-12-07T02:41:22;8.6;;;4.9;;
76548;SDS011;65391;52.068;4.542;2023-12-07T02:43:47;8.6;;;4.9;;
76548;SDS011;65391;52.068;4.542;2023-12-07T02:46:12;8.6;;;4.9;;
76548;SDS011;65391;52.068;4.542;2023-12-07T02:48:37;8.6;;;4.9;;
76548;SDS011;65391;52.068;4.542;2023-12-07T02:51:02;10;;;5;;
76548;SDS011;65391;52.068;4.542;2023-12-07T02:53:27;10;;;5;;
76548;SDS011;65391;52.068;4.542;2023-12-07T02:55:52;10;;;5;;
76548;SDS011;65391;52.068;4.542;2023-12-07T02:58:17;10;;;5;;
76548;SDS011;65391;52.068;4.542;2023-12-07T03:00:42;10;;;5;;
76548;SDS011;65391;52.068;4.542;2023-12-07T03:03:07;12.1;;;5.7;;
76548;SDS011;65391;52.068;4.542;2023-12-07T03:05:32;12.1;;;5.7;;
76548;SDS011;65391;52.068;4.542;2023-12-07T03:07:57;12.1;;;5.7;;
76548;SDS011;65391;52.068;4.542;2023-12-07T03:10:22;12.1;;;5.7;;
76548;SDS011;65391;52.068;4.542;2023-12-07T03:12:47;11.4;;;5.5;;
76548;SDS011;65391;52.068;4.542;2023-12-07T03:15:12;11.4;;;5.5;;
76548;SDS011;65391;52.068;4.542;2023-12-07T03:17:37;11.4;;;5.5;;
76548;SDS011;65391;52.068;4.542;2023-12-07T03:20:02;11.4;;;5.5;;
76548;SDS011;65391;52.068;4.542;2023-12-07T03:22:27;9.6;;;5;;
76548;SDS011;65391;52.068;4.542;2023-12-07T03:24:52;9.6;;;5;;
76548;SDS011;65391;52.068;4.542;2023-12-07T03:27:17;9.6;;;5;;
76548;SDS011;65391;52.068;4.542;2023-12-07T03:29:42;9.6;;;5;;
76548;SDS011;65391;52.068;4.542;2023-12-07T03:32:07;11.7;;;5.7;;
76548;SDS011;65391;52.068;4.542;2023-12-07T03:34:32;11.7;;;5.7;;
76548;SDS011;65391;52.068;4.542;2023-12-07T03:36:57;11.7;;;5.7;;
76548;SDS011;65391;52.068;4.542;2023-12-07T03:39:22;11.7;;;5.7;;
76548;SDS011;65391;52.068;4.542;2023-12-07T03:41:47;10.9;;;5.2;;
76548;SDS011;65391;52.068;4.542;2023-12-07T03:44:12;10.9;;;5.2;;
76548;SDS011;65391;52.068;4.542;2023-12-07T03:46:37;10.9;;;5.2;;
76548;SDS011;65391;52.068;4.542;2023-12-07T03:49:02;10.9;;;5.2;;
76548;SDS011;65391;52.068;4.542;2023-12-07T03:51:27;11;;;5.3;;
76548;SDS011;65391;52.068;4.542;2023-12-07T03:53:52;11;;;5.3;;
76548;SDS011;65391;52.068;4.542;2023-12-07T03:56:24;11;;;5.3;;
76548;SDS011;65391;52.068;4.542;2023-12-07T03:58:42;11;;;5.3;;
76548;SDS011;65391;52.068;4.542;2023-12-07T04:01:07;11.4;;;5.2;;
76548;SDS011;65391;52.068;4.542;2023-12-07T04:03:32;11.4;;;5.2;;
76548;SDS011;65391;52.068;4.542;2023-12-07T04:05:57;11.4;;;5.2;;
76548;SDS011;65391;52.068;4.542;2023-12-07T04:08:22;11.4;;;5.2;;
76548;SDS011;65391;52.068;4.542;2023-12-07T04:10:47;11.4;;;5.2;;
76548;SDS011;65391;52.068;4.542;2023-12-07T04:13:12;9.8;;;5.2;;
76548;SDS011;65391;52.068;4.542;2023-12-07T04:15:37;9.8;;;5.2;;
76548;SDS011;65391;52.068;4.542;2023-12-07T04:18:02;9.8;;;5.2;;
76548;SDS011;65391;52.068;4.542;2023-12-07T04:20:27;9.8;;;5.2;;
76548;SDS011;65391;52.068;4.542;2023-12-07T04:22:52;12.3;;;6.2;;
76548;SDS011;65391;52.068;4.542;2023-12-07T04:25:17;12.3;;;6.2;;
76548;SDS011;65391;52.068;4.542;2023-12-07T04:27:42;12.3;;;6.2;;
76548;SDS011;65391;52.068;4.542;2023-12-07T04:30:08;12.3;;;6.2;;
76548;SDS011;65391;52.068;4.542;2023-12-07T04:32:32;12.3;;;6.1;;
76548;SDS011;65391;52.068;4.542;2023-12-07T04:34:57;12.3;;;6.1;;
76548;SDS011;65391;52.068;4.542;2023-12-07T04:37:22;12.3;;;6.1;;
76548;SDS011;65391;52.068;4.542;2023-12-07T04:39:47;12.3;;;6.1;;
76548;SDS011;65391;52.068;4.542;2023-12-07T04:42:12;12.6;;;6.9;;
76548;SDS011;65391;52.068;4.542;2023-12-07T04:44:37;12.6;;;6.9;;
76548;SDS011;65391;52.068;4.542;2023-12-07T04:47:02;12.6;;;6.9;;
76548;SDS011;65391;52.068;4.542;2023-12-07T04:49:27;12.6;;;6.9;;
76548;SDS011;65391;52.068;4.542;2023-12-07T04:51:52;14.8;;;8.4;;
76548;SDS011;65391;52.068;4.542;2023-12-07T04:54:17;14.8;;;8.4;;
76548;SDS011;65391;52.068;4.542;2023-12-07T04:56:42;14.8;;;8.4;;
76548;SDS011;65391;52.068;4.542;2023-12-07T04:59:07;14.8;;;8.4;;
76548;SDS011;65391;52.068;4.542;2023-12-07T05:01:32;15.6;;;8.5;;
76548;SDS011;65391;52.068;4.542;2023-12-07T05:03:57;15.6;;;8.5;;
76548;SDS011;65391;52.068;4.542;2023-12-07T05:06:22;15.6;;;8.5;;
76548;SDS011;65391;52.068;4.542;2023-12-07T05:08:47;15.6;;;8.5;;
76548;SDS011;65391;52.068;4.542;2023-12-07T05:11:12;17.3;;;9.8;;
76548;SDS011;65391;52.068;4.542;2023-12-07T05:13:37;17.3;;;9.8;;
76548;SDS011;65391;52.068;4.542;2023-12-07T05:16:03;17.3;;;9.8;;
76548;SDS011;65391;52.068;4.542;2023-12-07T05:18:27;17.3;;;9.8;;
76548;SDS011;65391;52.068;4.542;2023-12-07T05:20:52;17.3;;;9.8;;
76548;SDS011;65391;52.068;4.542;2023-12-07T05:23:17;18.8;;;12.5;;
76548;SDS011;65391;52.068;4.542;2023-12-07T05:25:42;18.8;;;12.5;;
76548;SDS011;65391;52.068;4.542;2023-12-07T05:28:07;18.8;;;12.5;;
76548;SDS011;65391;52.068;4.542;2023-12-07T05:30:32;18.8;;;12.5;;
76548;SDS011;65391;52.068;4.542;2023-12-07T05:32:57;29.8;;;12;;
76548;SDS011;65391;52.068;4.542;2023-12-07T05:35:22;29.8;;;12;;
76548;SDS011;65391;52.068;4.542;2023-12-07T05:37:47;29.8;;;12;;
76548;SDS011;65391;52.068;4.542;2023-12-07T05:40:12;29.8;;;12;;
76548;SDS011;65391;52.068;4.542;2023-12-07T05:42:37;33.5;;;11.7;;
76548;SDS011;65391;52.068;4.542;2023-12-07T05:45:03;33.5;;;11.7;;
76548;SDS011;65391;52.068;4.542;2023-12-07T05:47:27;33.5;;;11.7;;
76548;SDS011;65391;52.068;4.542;2023-12-07T05:49:52;33.5;;;11.7;;
76548;SDS011;65391;52.068;4.542;2023-12-07T05:52:17;29;;;10.9;;
76548;SDS011;65391;52.068;4.542;2023-12-07T05:54:42;29;;;10.9;;
76548;SDS011;65391;52.068;4.542;2023-12-07T05:57:07;29;;;10.9;;
76548;SDS011;65391;52.068;4.542;2023-12-07T05:59:36;29;;;10.9;;
76548;SDS011;65391;52.068;4.542;2023-12-07T06:01:57;36.6;;;10.8;;
76548;SDS011;65391;52.068;4.542;2023-12-07T06:04:22;36.6;;;10.8;;
76548;SDS011;65391;52.068;4.542;2023-12-07T06:06:47;36.6;;;10.8;;
76548;SDS011;65391;52.068;4.542;2023-12-07T06:09:12;36.6;;;10.8;;
76548;SDS011;65391;52.068;4.542;2023-12-07T06:11:37;28.5;;;10.8;;
76548;SDS011;65391;52.068;4.542;2023-12-07T06:14:02;28.5;;;10.8;;
76548;SDS011;65391;52.068;4.542;2023-12-07T06:16:27;28.5;;;10.8;;
76548;SDS011;65391;52.068;4.542;2023-12-07T06:18:52;28.5;;;10.8;;
76548;SDS011;65391;52.068;4.542;2023-12-07T06:21:17;19.6;;;7.8;;
76548;SDS011;65391;52.068;4.542;2023-12-07T06:23:42;19.6;;;7.8;;
76548;SDS011;65391;52.068;4.542;2023-12-07T06:26:07;19.6;;;7.8;;
76548;SDS011;65391;52.068;4.542;2023-12-07T06:28:32;19.6;;;7.8;;
76548;SDS011;65391;52.068;4.542;2023-12-07T06:30:57;19.6;;;7.8;;
76548;SDS011;65391;52.068;4.542;2023-12-07T06:33:22;13.6;;;7.2;;
76548;SDS011;65391;52.068;4.542;2023-12-07T06:35:47;13.6;;;7.2;;
76548;SDS011;65391;52.068;4.542;2023-12-07T06:38:12;13.6;;;7.2;;
76548;SDS011;65391;52.068;4.542;2023-12-07T06:40:37;13.6;;;7.2;;
76548;SDS011;65391;52.068;4.542;2023-12-07T06:43:02;15;;;6.5;;
76548;SDS011;65391;52.068;4.542;2023-12-07T06:45:27;15;;;6.5;;
76548;SDS011;65391;52.068;4.542;2023-12-07T06:47:52;15;;;6.5;;
76548;SDS011;65391;52.068;4.542;2023-12-07T06:50:17;15;;;6.5;;
76548;SDS011;65391;52.068;4.542;2023-12-07T06:52:42;16.4;;;7.9;;
76548;SDS011;65391;52.068;4.542;2023-12-07T06:55:08;16.4;;;7.9;;
76548;SDS011;65391;52.068;4.542;2023-12-07T06:57:32;16.4;;;7.9;;
76548;SDS011;65391;52.068;4.542;2023-12-07T06:59:57;16.4;;;7.9;;
76548;SDS011;65391;52.068;4.542;2023-12-07T07:02:22;19.5;;;8.1;;
76548;SDS011;65391;52.068;4.542;2023-12-07T07:04:47;19.5;;;8.1;;
76548;SDS011;65391;52.068;4.542;2023-12-07T07:07:12;19.5;;;8.1;;
76548;SDS011;65391;52.068;4.542;2023-12-07T07:09:37;19.5;;;8.1;;
76548;SDS011;65391;52.068;4.542;2023-12-07T07:12:02;13.4;;;6.9;;
76548;SDS011;65391;52.068;4.542;2023-12-07T07:14:27;13.4;;;6.9;;
76548;SDS011;65391;52.068;4.542;2023-12-07T07:16:52;13.4;;;6.9;;
76548;SDS011;65391;52.068;4.542;2023-12-07T07:19:17;13.4;;;6.9;;
76548;SDS011;65391;52.068;4.542;2023-12-07T07:21:42;13.6;;;6.6;;
76548;SDS011;65391;52.068;4.542;2023-12-07T07:24:07;13.6;;;6.6;;
76548;SDS011;65391;52.068;4.542;2023-12-07T07:26:32;13.6;;;6.6;;
76548;SDS011;65391;52.068;4.542;2023-12-07T07:28:57;13.6;;;6.6;;
76548;SDS011;65391;52.068;4.542;2023-12-07T07:31:22;21;;;6;;
76548;SDS011;65391;52.068;4.542;2023-12-07T07:33:47;21;;;6;;
76548;SDS011;65391;52.068;4.542;2023-12-07T07:36:12;21;;;6;;
76548;SDS011;65391;52.068;4.542;2023-12-07T07:38:37;21;;;6;;
76548;SDS011;65391;52.068;4.542;2023-12-07T07:41:02;21;;;6;;
76548;SDS011;65391;52.068;4.542;2023-12-07T07:43:27;17.9;;;5.8;;
76548;SDS011;65391;52.068;4.542;2023-12-07T07:45:52;17.9;;;5.8;;
76548;SDS011;65391;52.068;4.542;2023-12-07T07:48:17;17.9;;;5.8;;
76548;SDS011;65391;52.068;4.542;2023-12-07T07:50:42;17.9;;;5.8;;
76548;SDS011;65391;52.068;4.542;2023-12-07T07:53:07;14.7;;;5.6;;
76548;SDS011;65391;52.068;4.542;2023-12-07T07:55:32;14.7;;;5.6;;
76548;SDS011;65391;52.068;4.542;2023-12-07T07:57:57;14.7;;;5.6;;
76548;SDS011;65391;52.068;4.542;2023-12-07T08:00:22;14.7;;;5.6;;
76548;SDS011;65391;52.068;4.542;2023-12-07T08:02:47;14.8;;;4.7;;
76548;SDS011;65391;52.068;4.542;2023-12-07T08:05:12;14.8;;;4.7;;
76548;SDS011;65391;52.068;4.542;2023-12-07T08:07:37;14.8;;;4.7;;
76548;SDS011;65391;52.068;4.542;2023-12-07T08:10:03;14.8;;;4.7;;
76548;SDS011;65391;52.068;4.542;2023-12-07T08:12:27;12.6;;;5.3;;
76548;SDS011;65391;52.068;4.542;2023-12-07T08:14:52;12.6;;;5.3;;
76548;SDS011;65391;52.068;4.542;2023-12-07T08:17:17;12.6;;;5.3;;
76548;SDS011;65391;52.068;4.542;2023-12-07T08:19:42;12.6;;;5.3;;
76548;SDS011;65391;52.068;4.542;2023-12-07T08:22:07;28.3;;;6.2;;
76548;SDS011;65391;52.068;4.542;2023-12-07T08:24:32;28.3;;;6.2;;
76548;SDS011;65391;52.068;4.542;2023-12-07T08:26:57;28.3;;;6.2;;
76548;SDS011;65391;52.068;4.542;2023-12-07T08:29:22;28.3;;;6.2;;
76548;SDS011;65391;52.068;4.542;2023-12-07T08:31:47;22.3;;;6.2;;
76548;SDS011;65391;52.068;4.542;2023-12-07T08:34:12;22.3;;;6.2;;
76548;SDS011;65391;52.068;4.542;2023-12-07T08:36:37;22.3;;;6.2;;
76548;SDS011;65391;52.068;4.542;2023-12-07T08:39:02;22.3;;;6.2;;
76548;SDS011;65391;52.068;4.542;2023-12-07T08:41:27;11.9;;;4.2;;
76548;SDS011;65391;52.068;4.542;2023-12-07T08:43:52;11.9;;;4.2;;
76548;SDS011;65391;52.068;4.542;2023-12-07T08:46:17;11.9;;;4.2;;
76548;SDS011;65391;52.068;4.542;2023-12-07T08:48:42;11.9;;;4.2;;
76548;SDS011;65391;52.068;4.542;2023-12-07T08:51:07;11.9;;;4.2;;
76548;SDS011;65391;52.068;4.542;2023-12-07T08:53:32;12.8;;;4.4;;
76548;SDS011;65391;52.068;4.542;2023-12-07T08:55:57;12.8;;;4.4;;
76548;SDS011;65391;52.068;4.542;2023-12-07T08:58:22;12.8;;;4.4;;
76548;SDS011;65391;52.068;4.542;2023-12-07T09:00:47;12.8;;;4.4;;
76548;SDS011;65391;52.068;4.542;2023-12-07T09:03:12;14.5;;;6;;
76548;SDS011;65391;52.068;4.542;2023-12-07T09:05:37;14.5;;;6;;
76548;SDS011;65391;52.068;4.542;2023-12-07T09:08:03;14.5;;;6;;
76548;SDS011;65391;52.068;4.542;2023-12-07T09:10:27;14.5;;;6;;
76548;SDS011;65391;52.068;4.542;2023-12-07T09:12:52;16.8;;;5.8;;
76548;SDS011;65391;52.068;4.542;2023-12-07T09:15:17;16.8;;;5.8;;
76548;SDS011;65391;52.068;4.542;2023-12-07T09:17:42;16.8;;;5.8;;
76548;SDS011;65391;52.068;4.542;2023-12-07T09:20:08;16.8;;;5.8;;
76548;SDS011;65391;52.068;4.542;2023-12-07T09:22:32;12.3;;;5.1;;
76548;SDS011;65391;52.068;4.542;2023-12-07T09:24:57;12.3;;;5.1;;
76548;SDS011;65391;52.068;4.542;2023-12-07T09:27:22;12.3;;;5.1;;
76548;SDS011;65391;52.068;4.542;2023-12-07T09:29:47;12.3;;;5.1;;
76548;SDS011;65391;52.068;4.542;2023-12-07T09:32:12;17.2;;;5.8;;
76548;SDS011;65391;52.068;4.542;2023-12-07T09:34:39;17.2;;;5.8;;
76548;SDS011;65391;52.068;4.542;2023-12-07T09:37:05;17.2;;;5.8;;
76548;SDS011;65391;52.068;4.542;2023-12-07T09:39:27;17.2;;;5.8;;
76548;SDS011;65391;52.068;4.542;2023-12-07T09:41:52;13.7;;;5.9;;
76548;SDS011;65391;52.068;4.542;2023-12-07T09:44:18;13.7;;;5.9;;
76548;SDS011;65391;52.068;4.542;2023-12-07T09:46:42;13.7;;;5.9;;
76548;SDS011;65391;52.068;4.542;2023-12-07T09:49:07;13.7;;;5.9;;
76548;SDS011;65391;52.068;4.542;2023-12-07T09:51:32;14.3;;;6.5;;
76548;SDS011;65391;52.068;4.542;2023-12-07T09:53:57;14.3;;;6.5;;
76548;SDS011;65391;52.068;4.542;2023-12-07T09:56:22;14.3;;;6.5;;
76548;SDS011;65391;52.068;4.542;2023-12-07T09:58:47;14.3;;;6.5;;
76548;SDS011;65391;52.068;4.542;2023-12-07T10:01:12;14.3;;;6.5;;
76548;SDS011;65391;52.068;4.542;2023-12-07T10:03:37;13;;;8;;
76548;SDS011;65391;52.068;4.542;2023-12-07T10:06:03;13;;;8;;
76548;SDS011;65391;52.068;4.542;2023-12-07T10:08:28;13;;;8;;
76548;SDS011;65391;52.068;4.542;2023-12-07T10:11:01;13;;;8;;
76548;SDS011;65391;52.068;4.542;2023-12-07T10:13:17;13.1;;;8.7;;
76548;SDS011;65391;52.068;4.542;2023-12-07T10:15:42;13.1;;;8.7;;
76548;SDS011;65391;52.068;4.542;2023-12-07T10:18:07;13.1;;;8.7;;
76548;SDS011;65391;52.068;4.542;2023-12-07T10:20:33;13.1;;;8.7;;
76548;SDS011;65391;52.068;4.542;2023-12-07T10:23:00;16.1;;;8.5;;
76548;SDS011;65391;52.068;4.542;2023-12-07T10:25:23;16.1;;;8.5;;
76548;SDS011;65391;52.068;4.542;2023-12-07T10:27:47;16.1;;;8.5;;
76548;SDS011;65391;52.068;4.542;2023-12-07T10:30:13;16.1;;;8.5;;
76548;SDS011;65391;52.068;4.542;2023-12-07T10:32:38;15.3;;;7.4;;
76548;SDS011;65391;52.068;4.542;2023-12-07T10:35:03;15.3;;;7.4;;
76548;SDS011;65391;52.068;4.542;2023-12-07T10:37:27;15.3;;;7.4;;
76548;SDS011;65391;52.068;4.542;2023-12-07T10:39:52;15.3;;;7.4;;
76548;SDS011;65391;52.068;4.542;2023-12-07T10:42:17;15;;;7.7;;
76548;SDS011;65391;52.068;4.542;2023-12-07T10:44:43;15;;;7.7;;
76548;SDS011;65391;52.068;4.542;2023-12-07T10:47:08;15;;;7.7;;
76548;SDS011;65391;52.068;4.542;2023-12-07T10:49:32;15;;;7.7;;
76548;SDS011;65391;52.068;4.542;2023-12-07T10:51:59;14.8;;;7.2;;
76548;SDS011;65391;52.068;4.542;2023-12-07T10:54:23;14.8;;;7.2;;
76548;SDS011;65391;52.068;4.542;2023-12-07T10:56:48;14.8;;;7.2;;
76548;SDS011;65391;52.068;4.542;2023-12-07T10:59:13;14.8;;;7.2;;
76548;SDS011;65391;52.068;4.542;2023-12-07T11:01:38;14.2;;;6.9;;
76548;SDS011;65391;52.068;4.542;2023-12-07T11:04:03;14.2;;;6.9;;
76548;SDS011;65391;52.068;4.542;2023-12-07T11:06:27;14.2;;;6.9;;
76548;SDS011;65391;52.068;4.542;2023-12-07T11:08:55;14.2;;;6.9;;
76548;SDS011;65391;52.068;4.542;2023-12-07T11:11:20;14.2;;;6.9;;
76548;SDS011;65391;52.068;4.542;2023-12-07T11:13:45;15.2;;;7.9;;
76548;SDS011;65391;52.068;4.542;2023-12-07T11:16:07;15.2;;;7.9;;
76548;SDS011;65391;52.068;4.542;2023-12-07T11:18:32;15.2;;;7.9;;
76548;SDS011;65391;52.068;4.542;2023-12-07T11:20:58;15.2;;;7.9;;
76548;SDS011;65391;52.068;4.542;2023-12-07T11:23:23;15.2;;;8.1;;
76548;SDS011;65391;52.068;4.542;2023-12-07T11:25:48;15.2;;;8.1;;
76548;SDS011;65391;52.068;4.542;2023-12-07T11:28:13;15.2;;;8.1;;
76548;SDS011;65391;52.068;4.542;2023-12-07T11:30:38;15.2;;;8.1;;
76548;SDS011;65391;52.068;4.542;2023-12-07T11:33:03;12.8;;;6.3;;
76548;SDS011;65391;52.068;4.542;2023-12-07T11:35:28;12.8;;;6.3;;
76548;SDS011;65391;52.068;4.542;2023-12-07T11:38:02;12.8;;;6.3;;
76548;SDS011;65391;52.068;4.542;2023-12-07T11:40:18;12.8;;;6.3;;
76548;SDS011;65391;52.068;4.542;2023-12-07T11:42:43;14.1;;;7.2;;
76548;SDS011;65391;52.068;4.542;2023-12-07T11:45:08;14.1;;;7.2;;
76548;SDS011;65391;52.068;4.542;2023-12-07T11:47:33;14.1;;;7.2;;
76548;SDS011;65391;52.068;4.542;2023-12-07T11:49:58;14.1;;;7.2;;
76548;SDS011;65391;52.068;4.542;2023-12-07T11:52:23;13.8;;;6.9;;
76548;SDS011;65391;52.068;4.542;2023-12-07T11:54:48;13.8;;;6.9;;
76548;SDS011;65391;52.068;4.542;2023-12-07T11:57:13;13.8;;;6.9;;
76548;SDS011;65391;52.068;4.542;2023-12-07T11:59:38;13.8;;;6.9;;
76548;SDS011;65391;52.068;4.542;2023-12-07T12:02:03;15.9;;;8.2;;
76548;SDS011;65391;52.068;4.542;2023-12-07T12:04:28;15.9;;;8.2;;
76548;SDS011;65391;52.068;4.542;2023-12-07T12:06:53;15.9;;;8.2;;
76548;SDS011;65391;52.068;4.542;2023-12-07T12:09:18;15.9;;;8.2;;
76548;SDS011;65391;52.068;4.542;2023-12-07T12:11:44;14.2;;;7.2;;
76548;SDS011;65391;52.068;4.542;2023-12-07T12:14:08;14.2;;;7.2;;
76548;SDS011;65391;52.068;4.542;2023-12-07T12:16:33;14.2;;;7.2;;
76548;SDS011;65391;52.068;4.542;2023-12-07T12:18:58;14.2;;;7.2;;
76548;SDS011;65391;52.068;4.542;2023-12-07T12:21:23;14.2;;;7.2;;
76548;SDS011;65391;52.068;4.542;2023-12-07T12:23:48;17.1;;;8.5;;
76548;SDS011;65391;52.068;4.542;2023-12-07T12:26:13;17.1;;;8.5;;
76548;SDS011;65391;52.068;4.542;2023-12-07T12:28:38;17.1;;;8.5;;
76548;SDS011;65391;52.068;4.542;2023-12-07T12:31:03;17.1;;;8.5;;
76548;SDS011;65391;52.068;4.542;2023-12-07T12:33:28;19.5;;;10.8;;
76548;SDS011;65391;52.068;4.542;2023-12-07T12:36:08;19.5;;;10.8;;
76548;SDS011;65391;52.068;4.542;2023-12-07T12:38:18;19.5;;;10.8;;
76548;SDS011;65391;52.068;4.542;2023-12-07T12:40:43;19.5;;;10.8;;
76548;SDS011;65391;52.068;4.542;2023-12-07T12:43:08;19.7;;;10.9;;
76548;SDS011;65391;52.068;4.542;2023-12-07T12:45:33;19.7;;;10.9;;
76548;SDS011;65391;52.068;4.542;2023-12-07T12:47:58;19.7;;;10.9;;
76548;SDS011;65391;52.068;4.542;2023-12-07T12:50:39;19.7;;;10.9;;
76548;SDS011;65391;52.068;4.542;2023-12-07T12:52:48;19.9;;;11;;
76548;SDS011;65391;52.068;4.542;2023-12-07T12:55:13;19.9;;;11;;
76548;SDS011;65391;52.068;4.542;2023-12-07T12:57:38;19.9;;;11;;
76548;SDS011;65391;52.068;4.542;2023-12-07T13:00:03;19.9;;;11;;
76548;SDS011;65391;52.068;4.542;2023-12-07T13:02:28;18.5;;;9.5;;
76548;SDS011;65391;52.068;4.542;2023-12-07T13:04:53;18.5;;;9.5;;
76548;SDS011;65391;52.068;4.542;2023-12-07T13:07:18;18.5;;;9.5;;
76548;SDS011;65391;52.068;4.542;2023-12-07T13:09:43;18.5;;;9.5;;
76548;SDS011;65391;52.068;4.542;2023-12-07T13:12:08;19.8;;;10.9;;
76548;SDS011;65391;52.068;4.542;2023-12-07T13:14:33;19.8;;;10.9;;
76548;SDS011;65391;52.068;4.542;2023-12-07T13:16:58;19.8;;;10.9;;
76548;SDS011;65391;52.068;4.542;2023-12-07T13:19:23;19.8;;;10.9;;
76548;SDS011;65391;52.068;4.542;2023-12-07T13:21:48;17.4;;;8.5;;
76548;SDS011;65391;52.068;4.542;2023-12-07T13:24:13;17.4;;;8.5;;
76548;SDS011;65391;52.068;4.542;2023-12-07T13:26:38;17.4;;;8.5;;
76548;SDS011;65391;52.068;4.542;2023-12-07T13:29:03;17.4;;;8.5;;
76548;SDS011;65391;52.068;4.542;2023-12-07T13:31:28;17.4;;;8.5;;
76548;SDS011;65391;52.068;4.542;2023-12-07T13:33:53;18.3;;;9.5;;
76548;SDS011;65391;52.068;4.542;2023-12-07T13:36:18;18.3;;;9.5;;
76548;SDS011;65391;52.068;4.542;2023-12-07T13:38:43;18.3;;;9.5;;
76548;SDS011;65391;52.068;4.542;2023-12-07T13:41:08;18.3;;;9.5;;
76548;SDS011;65391;52.068;4.542;2023-12-07T13:43:33;19.1;;;10.1;;
76548;SDS011;65391;52.068;4.542;2023-12-07T13:45:58;19.1;;;10.1;;
76548;SDS011;65391;52.068;4.542;2023-12-07T13:48:23;19.1;;;10.1;;
76548;SDS011;65391;52.068;4.542;2023-12-07T13:50:48;19.1;;;10.1;;
76548;SDS011;65391;52.068;4.542;2023-12-07T13:53:13;17.5;;;8.7;;
76548;SDS011;65391;52.068;4.542;2023-12-07T13:55:38;17.5;;;8.7;;
76548;SDS011;65391;52.068;4.542;2023-12-07T13:58:03;17.5;;;8.7;;
76548;SDS011;65391;52.068;4.542;2023-12-07T14:00:28;17.5;;;8.7;;
76548;SDS011;65391;52.068;4.542;2023-12-07T14:02:53;19.6;;;10.6;;
76548;SDS011;65391;52.068;4.542;2023-12-07T14:05:18;19.6;;;10.6;;
76548;SDS011;65391;52.068;4.542;2023-12-07T14:07:43;19.6;;;10.6;;
76548;SDS011;65391;52.068;4.542;2023-12-07T14:10:08;19.6;;;10.6;;
76548;SDS011;65391;52.068;4.542;2023-12-07T14:12:33;18.6;;;9.2;;
76548;SDS011;65391;52.068;4.542;2023-12-07T14:14:58;18.6;;;9.2;;
76548;SDS011;65391;52.068;4.542;2023-12-07T14:17:23;18.6;;;9.2;;
76548;SDS011;65391;52.068;4.542;2023-12-07T14:19:48;18.6;;;9.2;;
76548;SDS011;65391;52.068;4.542;2023-12-07T14:22:13;18.1;;;9.4;;
76548;SDS011;65391;52.068;4.542;2023-12-07T14:24:38;18.1;;;9.4;;
76548;SDS011;65391;52.068;4.542;2023-12-07T14:27:03;18.1;;;9.4;;
76548;SDS011;65391;52.068;4.542;2023-12-07T14:29:28;18.1;;;9.4;;
76548;SDS011;65391;52.068;4.542;2023-12-07T14:31:53;18.3;;;9.1;;
76548;SDS011;65391;52.068;4.542;2023-12-07T14:34:18;18.3;;;9.1;;
76548;SDS011;65391;52.068;4.542;2023-12-07T14:36:43;18.3;;;9.1;;
76548;SDS011;65391;52.068;4.542;2023-12-07T14:39:08;18.3;;;9.1;;
76548;SDS011;65391;52.068;4.542;2023-12-07T14:41:33;18.3;;;9.1;;
76548;SDS011;65391;52.068;4.542;2023-12-07T14:43:58;17.5;;;9;;
76548;SDS011;65391;52.068;4.542;2023-12-07T14:46:23;17.5;;;9;;
76548;SDS011;65391;52.068;4.542;2023-12-07T14:48:48;17.5;;;9;;
76548;SDS011;65391;52.068;4.542;2023-12-07T14:51:17;17.5;;;9;;